Time;durP1;ratioP1;P1;durP2;ratioP2;P2;SDS_P1;SDS_P2;PMS_P1;PMS_P2;Temp;Humidity;BMP_temperature;BMP_pressure;BME280_temperature;BME280_humidity;BME280_pressure;Samples;Min_cycle;Max_cycle;Signal;HPM_P1;HPM_P2
2022/03/06 00:00:40;;;;;;;23.02;17.00;;;;;;;;;;5113914;28;20043;-75
2022/03/06 00:03:06;;;;;;;22.60;15.50;;;;;;;;;;5111991;28;20548;-75
2022/03/06 00:05:32;;;;;;;23.05;15.35;;;;;;;;;;5112607;28;20046;-76
2022/03/06 00:07:59;;;;;;;25.60;17.73;;;;;;;;;;5113128;28;20511;-75
2022/03/06 00:10:26;;;;;;;23.77;18.63;;;;;;;;;;5129518;28;20035;-75
2022/03/06 00:12:52;;;;;;;25.33;17.13;;;;;;;;;;5108031;28;20050;-75
2022/03/06 00:15:19;;;;;;;22.20;17.15;;;;;;;;;;5117407;27;20477;-75
2022/03/06 00:17:45;;;;;;;25.58;17.55;;;;;;;;;;5112042;28;20040;-76
2022/03/06 00:20:12;;;;;;;23.30;16.35;;;;;;;;;;5123609;28;20054;-75
2022/03/06 00:22:38;;;;;;;25.52;17.48;;;;;;;;;;5125674;28;20051;-75
2022/03/06 00:25:05;;;;;;;25.30;17.50;;;;;;;;;;5110160;28;20100;-75
2022/03/06 00:27:31;;;;;;;23.00;16.63;;;;;;;;;;5127293;27;20079;-74
2022/03/06 00:29:58;;;;;;;23.58;15.93;;;;;;;;;;5104864;28;20038;-74
2022/03/06 00:32:24;;;;;;;25.23;16.73;;;;;;;;;;5131957;27;20455;-74
2022/03/06 00:34:50;;;;;;;24.98;17.55;;;;;;;;;;5131933;27;20104;-74
2022/03/06 00:37:16;;;;;;;24.33;16.27;;;;;;;;;;5131136;27;20050;-76
2022/03/06 00:39:43;;;;;;;21.13;15.07;;;;;;;;;;5103847;28;20089;-75
2022/03/06 00:42:09;;;;;;;25.40;16.50;;;;;;;;;;5081902;28;20061;-75
2022/03/06 00:44:36;;;;;;;23.90;16.83;;;;;;;;;;5096991;28;20131;-75
2022/03/06 00:47:02;;;;;;;22.25;17.30;;;;;;;;;;5124141;27;20080;-75
2022/03/06 00:49:28;;;;;;;26.60;17.75;;;;;;;;;;5135803;27;20039;-75
2022/03/06 00:51:54;;;;;;;27.83;17.83;;;;;;;;;;5105725;27;20043;-76
2022/03/06 00:54:21;;;;;;;21.80;16.10;;;;;;;;;;5116940;27;20127;-75
2022/03/06 00:56:48;;;;;;;21.75;17.45;;;;;;;;;;5124844;27;20043;-75
2022/03/06 00:59:14;;;;;;;22.90;16.27;;;;;;;;;;5104446;28;20062;-75
2022/03/06 01:01:40;;;;;;;23.10;17.00;;;;;;;;;;5102421;27;20039;-75
2022/03/06 01:04:07;;;;;;;25.38;17.83;;;;;;;;;;5128147;27;20169;-75
2022/03/06 01:06:33;;;;;;;27.45;14.73;;;;;;;;;;5120768;27;20110;-75
2022/03/06 01:08:59;;;;;;;24.95;17.05;;;;;;;;;;5128856;27;20054;-75
2022/03/06 01:11:26;;;;;;;23.42;17.45;;;;;;;;;;5108555;27;20407;-76
2022/03/06 01:13:52;;;;;;;23.90;17.67;;;;;;;;;;5088697;27;20453;-76
2022/03/06 01:16:18;;;;;;;23.23;16.60;;;;;;;;;;5135077;27;20046;-74
2022/03/06 01:18:44;;;;;;;24.00;16.45;;;;;;;;;;5134105;27;20043;-75
2022/03/06 01:21:10;;;;;;;23.13;15.05;;;;;;;;;;5127374;27;20043;-73
2022/03/06 01:23:36;;;;;;;21.80;17.05;;;;;;;;;;5135518;27;20183;-75
2022/03/06 01:26:03;;;;;;;22.77;17.13;;;;;;;;;;5135214;27;20077;-75
2022/03/06 01:28:29;;;;;;;21.65;16.33;;;;;;;;;;5097809;27;20502;-76
2022/03/06 01:30:55;;;;;;;22.65;15.95;;;;;;;;;;5117008;27;20130;-75
2022/03/06 01:33:22;;;;;;;27.20;17.75;;;;;;;;;;5116378;27;20052;-75
2022/03/06 01:35:48;;;;;;;26.35;17.65;;;;;;;;;;5136118;27;20039;-76
2022/03/06 01:38:14;;;;;;;26.17;17.88;;;;;;;;;;5132522;27;20055;-74
2022/03/06 01:40:40;;;;;;;23.48;17.70;;;;;;;;;;5132739;27;20039;-75
2022/03/06 01:43:08;;;;;;;22.15;17.05;;;;;;;;;;5115281;27;20073;-75
2022/03/06 01:45:34;;;;;;;26.15;17.35;;;;;;;;;;5134826;27;20096;-74
2022/03/06 01:48:03;;;;;;;23.60;18.25;;;;;;;;;;5133326;27;20044;-74
2022/03/06 01:50:33;;;;;;;23.70;17.45;;;;;;;;;;5099631;27;20046;-74
2022/03/06 01:53:00;;;;;;;26.13;17.88;;;;;;;;;;5117656;27;20082;-74
2022/03/06 01:55:27;;;;;;;24.55;18.02;;;;;;;;;;5134855;27;20466;-75
2022/03/06 01:57:54;;;;;;;29.52;18.38;;;;;;;;;;5111173;27;20043;-74
2022/03/06 02:00:22;;;;;;;23.48;17.35;;;;;;;;;;5103721;27;20075;-74
2022/03/06 02:02:48;;;;;;;24.83;18.42;;;;;;;;;;5094576;28;20040;-73
2022/03/06 02:05:14;;;;;;;26.15;18.45;;;;;;;;;;5109527;27;20481;-75
2022/03/06 02:07:40;;;;;;;25.92;18.60;;;;;;;;;;5117456;27;20083;-75
2022/03/06 02:10:08;;;;;;;25.17;17.05;;;;;;;;;;5133259;27;20118;-77
2022/03/06 02:12:34;;;;;;;25.52;18.13;;;;;;;;;;5124860;27;20043;-75
2022/03/06 02:15:01;;;;;;;26.23;18.35;;;;;;;;;;5133884;27;20042;-75
2022/03/06 02:17:27;;;;;;;24.05;18.65;;;;;;;;;;5133297;27;20547;-74
2022/03/06 02:19:55;;;;;;;24.17;18.20;;;;;;;;;;5132913;27;20369;-75
2022/03/06 02:22:29;;;;;;;24.55;16.92;;;;;;;;;;5135386;27;20039;-74
2022/03/06 02:24:58;;;;;;;25.05;17.50;;;;;;;;;;5131051;27;20053;-76
2022/03/06 02:27:25;;;;;;;25.45;17.60;;;;;;;;;;5115761;27;20059;-74
2022/03/06 02:29:53;;;;;;;24.50;17.80;;;;;;;;;;5128527;27;20042;-75
2022/03/06 02:32:20;;;;;;;24.00;15.48;;;;;;;;;;5130329;27;20046;-75
2022/03/06 02:34:49;;;;;;;26.17;16.95;;;;;;;;;;5089868;27;20049;-75
2022/03/06 02:37:16;;;;;;;25.65;16.13;;;;;;;;;;5119077;27;20065;-75
2022/03/06 02:39:43;;;;;;;23.75;16.50;;;;;;;;;;5100047;27;20043;-75
2022/03/06 02:42:10;;;;;;;24.90;16.38;;;;;;;;;;5114405;27;20133;-75
2022/03/06 02:44:36;;;;;;;22.58;17.55;;;;;;;;;;5121186;27;20119;-75
2022/03/06 02:47:03;;;;;;;23.25;16.83;;;;;;;;;;5128288;27;20571;-74
2022/03/06 02:49:30;;;;;;;22.25;16.02;;;;;;;;;;5131711;27;20047;-75
2022/03/06 02:51:56;;;;;;;24.05;17.30;;;;;;;;;;5132999;27;20043;-74
2022/03/06 02:54:22;;;;;;;24.52;14.27;;;;;;;;;;5118464;27;20043;-76
2022/03/06 02:56:48;;;;;;;22.75;14.43;;;;;;;;;;5112957;28;20131;-75
2022/03/06 02:59:14;;;;;;;21.35;15.00;;;;;;;;;;5118170;27;20056;-74
2022/03/06 03:01:41;;;;;;;21.05;13.68;;;;;;;;;;5133915;27;20042;-75
2022/03/06 03:04:11;;;;;;;17.70;13.20;;;;;;;;;;5115610;27;20055;-74
2022/03/06 03:06:38;;;;;;;18.33;12.05;;;;;;;;;;5096404;27;20097;-75
2022/03/06 03:09:07;;;;;;;17.20;11.35;;;;;;;;;;5114961;27;20031;-76
2022/03/06 03:11:34;;;;;;;18.88;12.38;;;;;;;;;;5130683;27;20430;-76
2022/03/06 03:14:01;;;;;;;16.77;11.30;;;;;;;;;;5129849;27;20054;-76
2022/03/06 03:16:27;;;;;;;17.85;11.70;;;;;;;;;;5142439;27;20043;-76
2022/03/06 03:18:54;;;;;;;17.60;11.30;;;;;;;;;;5109359;27;20047;-76
2022/03/06 03:21:20;;;;;;;15.48;10.13;;;;;;;;;;5117110;27;20062;-78
2022/03/06 03:23:46;;;;;;;19.98;11.30;;;;;;;;;;5135025;27;20440;-75
2022/03/06 03:26:12;;;;;;;17.58;11.13;;;;;;;;;;5133851;27;20054;-76
2022/03/06 03:28:38;;;;;;;16.63;11.60;;;;;;;;;;5113209;27;20039;-75
2022/03/06 03:31:04;;;;;;;16.35;10.93;;;;;;;;;;5113814;27;20079;-74
2022/03/06 03:33:30;;;;;;;15.90;10.88;;;;;;;;;;5134158;27;20125;-75
2022/03/06 03:35:57;;;;;;;16.10;11.25;;;;;;;;;;5111152;27;20045;-74
2022/03/06 03:38:23;;;;;;;15.02;9.88;;;;;;;;;;5132726;27;20050;-75
2022/03/06 03:40:49;;;;;;;18.73;11.38;;;;;;;;;;5127714;27;20043;-76
2022/03/06 03:43:15;;;;;;;14.02;9.13;;;;;;;;;;5110132;27;20097;-75
2022/03/06 03:45:41;;;;;;;16.38;10.73;;;;;;;;;;5127096;27;20114;-75
2022/03/06 03:48:08;;;;;;;15.65;9.32;;;;;;;;;;5130319;27;20070;-77
2022/03/06 03:50:34;;;;;;;15.13;10.65;;;;;;;;;;5104808;28;20487;-74
2022/03/06 03:53:00;;;;;;;16.40;9.55;;;;;;;;;;5127503;27;20043;-76
2022/03/06 03:55:26;;;;;;;15.55;10.30;;;;;;;;;;5133711;27;20039;-76
2022/03/06 03:57:52;;;;;;;18.33;11.25;;;;;;;;;;5128802;27;20514;-74
2022/03/06 04:00:18;;;;;;;17.27;11.40;;;;;;;;;;5128955;27;20041;-75
2022/03/06 04:02:44;;;;;;;17.30;11.13;;;;;;;;;;5126569;28;20425;-75
2022/03/06 04:05:10;;;;;;;16.48;9.75;;;;;;;;;;5126216;28;20074;-75
2022/03/06 04:07:37;;;;;;;17.13;10.48;;;;;;;;;;5097401;28;20044;-74
2022/03/06 04:10:03;;;;;;;15.90;11.15;;;;;;;;;;5121815;28;20046;-75
2022/03/06 04:12:29;;;;;;;17.40;11.98;;;;;;;;;;5107285;27;20039;-76
2022/03/06 04:14:55;;;;;;;14.95;11.23;;;;;;;;;;5114906;27;20039;-76
2022/03/06 04:17:21;;;;;;;17.77;10.93;;;;;;;;;;5115067;27;20128;-75
2022/03/06 04:19:47;;;;;;;16.88;11.45;;;;;;;;;;5128001;27;20124;-75
2022/03/06 04:22:14;;;;;;;17.25;10.88;;;;;;;;;;5080647;28;20475;-75
2022/03/06 04:24:40;;;;;;;15.00;10.15;;;;;;;;;;5136534;27;20055;-76
2022/03/06 04:27:06;;;;;;;14.48;10.55;;;;;;;;;;5117907;27;20050;-75
2022/03/06 04:29:32;;;;;;;17.85;11.35;;;;;;;;;;5119196;27;20045;-75
2022/03/06 04:31:58;;;;;;;16.65;10.40;;;;;;;;;;5118576;27;20142;-74
2022/03/06 04:34:24;;;;;;;17.65;10.10;;;;;;;;;;5098228;28;20047;-75
2022/03/06 04:36:50;;;;;;;15.70;10.68;;;;;;;;;;5106497;27;20094;-75
2022/03/06 04:39:17;;;;;;;12.70;9.38;;;;;;;;;;5119266;27;20047;-73
2022/03/06 04:41:43;;;;;;;14.65;9.98;;;;;;;;;;5131243;27;20361;-75
2022/03/06 04:44:09;;;;;;;15.05;9.82;;;;;;;;;;5123886;27;20031;-75
2022/03/06 04:46:35;;;;;;;15.15;9.50;;;;;;;;;;5122154;27;20035;-75
2022/03/06 04:49:01;;;;;;;16.55;10.20;;;;;;;;;;5135475;27;20050;-75
2022/03/06 04:51:27;;;;;;;16.25;9.48;;;;;;;;;;5117293;27;20039;-75
2022/03/06 04:53:53;;;;;;;14.65;9.70;;;;;;;;;;5130934;27;20043;-75
2022/03/06 04:56:20;;;;;;;14.45;9.30;;;;;;;;;;5135501;27;20049;-75
2022/03/06 04:58:46;;;;;;;13.10;8.95;;;;;;;;;;5114448;27;20474;-76
2022/03/06 05:01:12;;;;;;;17.33;9.30;;;;;;;;;;5101678;27;20048;-75
2022/03/06 05:03:38;;;;;;;15.30;9.43;;;;;;;;;;5128845;27;20154;-75
2022/03/06 05:06:04;;;;;;;12.55;8.68;;;;;;;;;;5134514;27;20062;-75
2022/03/06 05:08:30;;;;;;;13.05;8.75;;;;;;;;;;5117320;27;20441;-74
2022/03/06 05:10:57;;;;;;;16.77;8.85;;;;;;;;;;5098629;27;20115;-74
2022/03/06 05:13:23;;;;;;;15.05;8.25;;;;;;;;;;5097925;28;20054;-75
2022/03/06 05:15:50;;;;;;;12.73;7.90;;;;;;;;;;5110810;27;20162;-75
2022/03/06 05:18:16;;;;;;;14.68;8.23;;;;;;;;;;5135285;27;20046;-75
2022/03/06 05:20:42;;;;;;;12.93;8.35;;;;;;;;;;5114150;27;20039;-75
2022/03/06 05:23:08;;;;;;;14.80;7.80;;;;;;;;;;5106828;27;20038;-76
2022/03/06 05:25:35;;;;;;;15.68;8.18;;;;;;;;;;5103334;28;20254;-75
2022/03/06 05:28:01;;;;;;;13.75;8.02;;;;;;;;;;5107596;27;20084;-74
2022/03/06 05:30:27;;;;;;;14.30;7.93;;;;;;;;;;5110736;27;20544;-74
2022/03/06 05:32:53;;;;;;;12.07;8.35;;;;;;;;;;5131408;27;20103;-74
2022/03/06 05:35:19;;;;;;;13.88;7.57;;;;;;;;;;5115192;27;20073;-74
2022/03/06 05:37:45;;;;;;;11.60;7.60;;;;;;;;;;5103763;28;20101;-75
2022/03/06 05:40:11;;;;;;;11.18;7.50;;;;;;;;;;5095214;28;20122;-75
2022/03/06 05:42:37;;;;;;;12.27;7.35;;;;;;;;;;5110788;27;20450;-74
2022/03/06 05:45:04;;;;;;;11.88;7.38;;;;;;;;;;5102195;27;20054;-75
2022/03/06 05:47:30;;;;;;;13.38;7.97;;;;;;;;;;5134746;27;20122;-76
2022/03/06 05:49:56;;;;;;;15.40;7.68;;;;;;;;;;5134531;27;20050;-75
2022/03/06 05:52:23;;;;;;;16.13;7.50;;;;;;;;;;5130611;27;20043;-75
2022/03/06 05:54:49;;;;;;;13.32;7.38;;;;;;;;;;5126330;27;20476;-74
2022/03/06 05:57:15;;;;;;;11.63;7.75;;;;;;;;;;5122421;27;20047;-76
2022/03/06 05:59:42;;;;;;;12.07;6.82;;;;;;;;;;5123222;27;20067;-75
2022/03/06 06:02:08;;;;;;;13.43;7.60;;;;;;;;;;5122877;27;20057;-76
2022/03/06 06:04:34;;;;;;;12.40;7.15;;;;;;;;;;5132471;27;20043;-75
2022/03/06 06:07:00;;;;;;;12.60;7.45;;;;;;;;;;5114405;27;20047;-74
2022/03/06 06:09:26;;;;;;;12.02;7.30;;;;;;;;;;5128939;27;20053;-75
2022/03/06 06:11:52;;;;;;;12.43;7.18;;;;;;;;;;5111807;27;20043;-75
2022/03/06 06:14:19;;;;;;;13.45;7.25;;;;;;;;;;5108348;27;20471;-75
2022/03/06 06:16:45;;;;;;;13.38;7.20;;;;;;;;;;5123100;27;20088;-75
2022/03/06 06:19:11;;;;;;;11.63;6.43;;;;;;;;;;5135312;27;20075;-76
2022/03/06 06:21:39;;;;;;;12.70;6.80;;;;;;;;;;5090950;28;20047;-75
2022/03/06 06:24:05;;;;;;;12.55;6.68;;;;;;;;;;5124558;27;20043;-76
2022/03/06 06:26:31;;;;;;;12.13;6.53;;;;;;;;;;5111987;27;20460;-74
2022/03/06 06:28:57;;;;;;;10.95;7.00;;;;;;;;;;5106569;28;20135;-75
2022/03/06 06:31:24;;;;;;;10.85;6.47;;;;;;;;;;5082314;27;20119;-75
2022/03/06 06:33:51;;;;;;;10.38;6.28;;;;;;;;;;5116727;27;20395;-75
2022/03/06 06:36:17;;;;;;;11.45;6.28;;;;;;;;;;5120496;27;20047;-75
2022/03/06 06:38:43;;;;;;;13.38;6.63;;;;;;;;;;5110143;27;20046;-75
2022/03/06 06:41:09;;;;;;;9.48;5.85;;;;;;;;;;5111618;27;20457;-75
2022/03/06 06:43:35;;;;;;;12.63;6.00;;;;;;;;;;5119801;27;20070;-75
2022/03/06 06:46:02;;;;;;;14.00;6.10;;;;;;;;;;5133743;27;20091;-74
2022/03/06 06:48:28;;;;;;;11.93;6.95;;;;;;;;;;5114034;27;20122;-75
2022/03/06 06:50:54;;;;;;;10.52;6.70;;;;;;;;;;5126300;27;20084;-75
2022/03/06 06:53:20;;;;;;;12.75;6.43;;;;;;;;;;5132936;27;20074;-75
2022/03/06 06:55:46;;;;;;;10.57;5.90;;;;;;;;;;5132815;27;20511;-75
2022/03/06 06:58:12;;;;;;;16.52;6.65;;;;;;;;;;5108953;28;20040;-75
2022/03/06 07:00:38;;;;;;;9.60;6.07;;;;;;;;;;5113197;28;20043;-75
2022/03/06 07:03:05;;;;;;;14.63;7.13;;;;;;;;;;5109536;28;20392;-75
2022/03/06 07:05:31;;;;;;;9.48;5.70;;;;;;;;;;5085734;28;20126;-75
2022/03/06 07:07:57;;;;;;;11.23;5.53;;;;;;;;;;5109060;28;20132;-75
2022/03/06 07:10:27;;;;;;;14.15;6.35;;;;;;;;;;5093363;28;20047;-77
2022/03/06 07:12:55;;;;;;;11.90;5.63;;;;;;;;;;5104217;28;20096;-75
2022/03/06 07:15:22;;;;;;;9.35;5.07;;;;;;;;;;5112397;28;20044;-76
2022/03/06 07:17:48;;;;;;;13.27;5.55;;;;;;;;;;5104027;28;20043;-75
2022/03/06 07:20:14;;;;;;;11.02;5.15;;;;;;;;;;5106013;28;20085;-76
2022/03/06 07:22:41;;;;;;;10.70;5.05;;;;;;;;;;5078232;28;20052;-74
2022/03/06 07:25:07;;;;;;;12.30;5.28;;;;;;;;;;5088937;28;20392;-75
2022/03/06 07:27:33;;;;;;;11.20;4.60;;;;;;;;;;5101365;28;20040;-75
2022/03/06 07:29:59;;;;;;;10.80;5.47;;;;;;;;;;5096091;28;20044;-77
2022/03/06 07:32:25;;;;;;;9.43;4.75;;;;;;;;;;5106292;28;20101;-76
2022/03/06 07:34:51;;;;;;;8.88;4.60;;;;;;;;;;5108054;28;20135;-75
2022/03/06 07:37:18;;;;;;;11.23;4.75;;;;;;;;;;5104751;28;20126;-75
2022/03/06 07:39:44;;;;;;;11.32;4.18;;;;;;;;;;5087919;28;20051;-77
2022/03/06 07:42:10;;;;;;;7.95;3.63;;;;;;;;;;5111596;28;20039;-73
2022/03/06 07:44:36;;;;;;;8.25;4.13;;;;;;;;;;5110052;28;20506;-76
2022/03/06 07:47:02;;;;;;;8.05;4.25;;;;;;;;;;5110550;28;20086;-76
2022/03/06 07:49:28;;;;;;;8.27;4.43;;;;;;;;;;5113147;28;20039;-74
2022/03/06 07:51:55;;;;;;;8.48;4.00;;;;;;;;;;5108050;28;20040;-77
2022/03/06 07:54:21;;;;;;;6.60;3.33;;;;;;;;;;5087509;28;20046;-76
2022/03/06 07:56:48;;;;;;;7.20;3.67;;;;;;;;;;5103802;28;20044;-75
2022/03/06 07:59:16;;;;;;;9.70;3.88;;;;;;;;;;5105471;28;20043;-75
2022/03/06 08:01:42;;;;;;;7.88;3.88;;;;;;;;;;5101185;28;20045;-76
2022/03/06 08:04:08;;;;;;;7.70;3.60;;;;;;;;;;5112428;28;20070;-76
2022/03/06 08:06:34;;;;;;;9.13;3.78;;;;;;;;;;5113523;28;20473;-75
2022/03/06 08:09:02;;;;;;;7.78;3.60;;;;;;;;;;5114992;28;20039;-75
2022/03/06 08:11:29;;;;;;;6.78;3.53;;;;;;;;;;5094230;28;20096;-76
2022/03/06 08:13:55;;;;;;;8.02;3.63;;;;;;;;;;5094673;28;20044;-76
2022/03/06 08:16:21;;;;;;;10.18;3.90;;;;;;;;;;5112679;28;20046;-75
2022/03/06 08:18:47;;;;;;;8.20;4.13;;;;;;;;;;5095029;28;20548;-75
2022/03/06 08:21:13;;;;;;;7.60;3.60;;;;;;;;;;5094765;28;20107;-76
2022/03/06 08:23:39;;;;;;;8.05;3.45;;;;;;;;;;5094731;28;20039;-75
2022/03/06 08:26:05;;;;;;;6.53;3.50;;;;;;;;;;5094638;28;20044;-76
2022/03/06 08:28:31;;;;;;;7.05;3.30;;;;;;;;;;5094571;28;20396;-76
2022/03/06 08:30:57;;;;;;;6.45;3.08;;;;;;;;;;5094610;28;20499;-75
2022/03/06 08:33:23;;;;;;;7.95;3.30;;;;;;;;;;5094559;28;20092;-76
2022/03/06 08:35:49;;;;;;;7.97;3.55;;;;;;;;;;5112130;28;20051;-76
2022/03/06 08:38:15;;;;;;;6.63;3.13;;;;;;;;;;5111838;28;20101;-76
2022/03/06 08:40:41;;;;;;;6.18;2.95;;;;;;;;;;5094605;28;20384;-76
2022/03/06 08:43:07;;;;;;;9.20;3.00;;;;;;;;;;5094691;28;20051;-75
2022/03/06 08:45:34;;;;;;;5.32;2.78;;;;;;;;;;5112879;28;20090;-75
2022/03/06 08:48:00;;;;;;;9.88;2.90;;;;;;;;;;5112381;28;20089;-76
2022/03/06 08:50:26;;;;;;;6.70;2.88;;;;;;;;;;5112914;28;20043;-77
2022/03/06 08:52:52;;;;;;;8.50;3.38;;;;;;;;;;5094012;28;20036;-76
2022/03/06 08:55:18;;;;;;;8.30;3.30;;;;;;;;;;5112085;28;20079;-76
2022/03/06 08:57:44;;;;;;;8.70;3.25;;;;;;;;;;5088413;28;20105;-76
2022/03/06 09:00:11;;;;;;;8.15;3.13;;;;;;;;;;5094712;28;20476;-75
2022/03/06 09:02:37;;;;;;;10.68;3.60;;;;;;;;;;5095937;28;20039;-76
2022/03/06 09:05:03;;;;;;;6.93;3.25;;;;;;;;;;5095700;28;20495;-76
2022/03/06 09:07:29;;;;;;;6.85;3.03;;;;;;;;;;5095051;28;20100;-75
2022/03/06 09:09:55;;;;;;;7.03;2.88;;;;;;;;;;5094704;28;20051;-77
2022/03/06 09:12:22;;;;;;;6.60;2.88;;;;;;;;;;5095850;28;20048;-76
2022/03/06 09:14:48;;;;;;;9.02;2.92;;;;;;;;;;5094263;28;20040;-76
2022/03/06 09:17:14;;;;;;;7.28;2.90;;;;;;;;;;5095376;28;20044;-76
2022/03/06 09:19:40;;;;;;;7.32;2.72;;;;;;;;;;5095583;28;20402;-75
2022/03/06 09:22:06;;;;;;;5.55;2.83;;;;;;;;;;5094715;28;20043;-76
2022/03/06 09:24:32;;;;;;;8.73;2.90;;;;;;;;;;5095668;28;20153;-76
2022/03/06 09:26:59;;;;;;;9.60;3.45;;;;;;;;;;5095361;28;20417;-77
2022/03/06 09:29:25;;;;;;;5.55;2.75;;;;;;;;;;5095580;28;20473;-76
2022/03/06 09:31:51;;;;;;;7.18;2.80;;;;;;;;;;5095378;28;20074;-75
2022/03/06 09:34:17;;;;;;;6.13;2.78;;;;;;;;;;5094288;28;20048;-76
2022/03/06 09:36:43;;;;;;;5.60;2.20;;;;;;;;;;5093890;28;20492;-76
2022/03/06 09:39:09;;;;;;;5.97;2.78;;;;;;;;;;5094194;28;20431;-75
2022/03/06 09:41:38;;;;;;;6.80;2.55;;;;;;;;;;5095162;28;20051;-76
2022/03/06 09:44:07;;;;;;;6.50;2.92;;;;;;;;;;5094001;28;20079;-75
2022/03/06 09:46:34;;;;;;;5.30;2.55;;;;;;;;;;5095042;28;20044;-75
2022/03/06 09:49:01;;;;;;;6.30;2.70;;;;;;;;;;5093976;28;20044;-78
2022/03/06 09:51:27;;;;;;;7.80;2.88;;;;;;;;;;5093969;28;20044;-75
2022/03/06 09:53:54;;;;;;;7.22;3.08;;;;;;;;;;5094918;28;20036;-75
2022/03/06 09:56:20;;;;;;;7.25;3.08;;;;;;;;;;5093837;28;20479;-78
2022/03/06 09:58:49;;;;;;;6.03;2.50;;;;;;;;;;5107314;28;20047;-76
2022/03/06 10:01:15;;;;;;;7.63;3.10;;;;;;;;;;5096785;28;20046;-76
2022/03/06 10:03:41;;;;;;;8.10;3.17;;;;;;;;;;5096535;28;20051;-76
2022/03/06 10:06:09;;;;;;;5.78;2.67;;;;;;;;;;5097029;28;20032;-76
2022/03/06 10:08:35;;;;;;;6.35;2.90;;;;;;;;;;5096984;28;20123;-75
2022/03/06 10:11:03;;;;;;;7.60;3.70;;;;;;;;;;5114730;28;20170;-76
2022/03/06 10:13:37;;;;;;;4.88;2.28;;;;;;;;;;5097094;28;20082;-74
2022/03/06 10:16:06;;;;;;;5.82;2.05;;;;;;;;;;5114868;28;20035;-76
2022/03/06 10:18:34;;;;;;;5.25;2.67;;;;;;;;;;5115189;28;20123;-75
2022/03/06 10:21:10;;;;;;;5.60;2.53;;;;;;;;;;5114634;28;20039;-76
2022/03/06 10:23:37;;;;;;;6.22;2.70;;;;;;;;;;5115163;28;20046;-75
2022/03/06 10:26:04;;;;;;;5.15;2.55;;;;;;;;;;5117400;28;20032;-75
2022/03/06 10:28:30;;;;;;;8.43;2.80;;;;;;;;;;5099767;28;20047;-75
2022/03/06 10:31:03;;;;;;;7.00;2.75;;;;;;;;;;5117584;28;20100;-74
2022/03/06 10:33:30;;;;;;;7.03;2.55;;;;;;;;;;5114999;28;20126;-77
2022/03/06 10:35:58;;;;;;;5.63;2.20;;;;;;;;;;5114904;28;20043;-75
2022/03/06 10:38:27;;;;;;;6.03;2.50;;;;;;;;;;5114669;28;20122;-75
2022/03/06 10:41:10;;;;;;;5.82;2.35;;;;;;;;;;5096306;28;20058;-75
2022/03/06 10:43:36;;;;;;;5.32;2.58;;;;;;;;;;5079325;28;20392;-76
2022/03/06 10:46:16;;;;;;;8.15;3.03;;;;;;;;;;5114223;28;20123;-76
2022/03/06 10:48:56;;;;;;;7.20;3.00;;;;;;;;;;5114322;28;20048;-76
2022/03/06 10:51:22;;;;;;;6.18;2.55;;;;;;;;;;5114088;28;20040;-76
2022/03/06 10:53:52;;;;;;;5.57;2.47;;;;;;;;;;5114267;28;20039;-76
2022/03/06 10:56:18;;;;;;;7.43;2.80;;;;;;;;;;5113889;28;20043;-76
2022/03/06 10:58:45;;;;;;;7.38;2.50;;;;;;;;;;5095663;28;20060;-76
2022/03/06 11:01:12;;;;;;;6.78;2.63;;;;;;;;;;5113910;28;20055;-76
2022/03/06 11:03:38;;;;;;;5.78;2.70;;;;;;;;;;5113849;28;20093;-76
2022/03/06 11:06:04;;;;;;;6.60;2.97;;;;;;;;;;5095965;28;20040;-76
2022/03/06 11:08:31;;;;;;;7.22;2.70;;;;;;;;;;5113933;28;20052;-76
2022/03/06 11:10:57;;;;;;;6.43;2.53;;;;;;;;;;5096076;28;20047;-75
2022/03/06 11:13:24;;;;;;;5.82;2.60;;;;;;;;;;5095827;28;20068;-76
2022/03/06 11:15:50;;;;;;;6.65;2.60;;;;;;;;;;5095859;28;20134;-75
2022/03/06 11:18:17;;;;;;;6.72;2.78;;;;;;;;;;5095816;28;20490;-75
2022/03/06 11:20:44;;;;;;;7.50;3.00;;;;;;;;;;5113739;28;20508;-76
2022/03/06 11:23:13;;;;;;;7.72;2.70;;;;;;;;;;5094809;28;20396;-76
2022/03/06 11:25:43;;;;;;;7.90;2.45;;;;;;;;;;5095174;28;20092;-76
2022/03/06 11:28:15;;;;;;;6.97;2.67;;;;;;;;;;5095355;28;20040;-76
2022/03/06 11:30:41;;;;;;;7.50;2.63;;;;;;;;;;5113507;28;20051;-76
2022/03/06 11:33:09;;;;;;;5.78;2.55;;;;;;;;;;5095441;28;20047;-76
2022/03/06 11:35:39;;;;;;;6.90;2.92;;;;;;;;;;5095195;28;20428;-76
2022/03/06 11:38:06;;;;;;;5.82;2.67;;;;;;;;;;5113351;28;20122;-77
2022/03/06 11:40:44;;;;;;;6.35;2.63;;;;;;;;;;5113013;28;20468;-75
2022/03/06 11:43:11;;;;;;;6.00;2.50;;;;;;;;;;5113156;28;20092;-75
2022/03/06 11:45:42;;;;;;;7.38;2.92;;;;;;;;;;5113238;28;20054;-75
2022/03/06 11:48:09;;;;;;;6.55;3.38;;;;;;;;;;5095383;28;20040;-75
2022/03/06 11:50:35;;;;;;;7.90;2.90;;;;;;;;;;5095223;28;20122;-77
2022/03/06 11:53:18;;;;;;;7.75;2.95;;;;;;;;;;5078217;28;20082;-77
2022/03/06 11:55:45;;;;;;;8.05;2.63;;;;;;;;;;5094801;28;20055;-75
2022/03/06 11:58:11;;;;;;;8.32;3.25;;;;;;;;;;5112679;28;20138;-76
2022/03/06 12:00:37;;;;;;;6.45;2.72;;;;;;;;;;5095202;28;20036;-76
2022/03/06 12:03:03;;;;;;;5.55;2.60;;;;;;;;;;5077997;28;20036;-75
2022/03/06 12:05:46;;;;;;;6.25;2.60;;;;;;;;;;5078238;28;20040;-77
2022/03/06 12:08:12;;;;;;;7.63;2.80;;;;;;;;;;5094833;28;20100;-76
2022/03/06 12:10:40;;;;;;;5.85;2.85;;;;;;;;;;5094681;28;20040;-75
2022/03/06 12:13:17;;;;;;;7.65;2.90;;;;;;;;;;5095060;28;20043;-75
2022/03/06 12:15:59;;;;;;;7.05;2.85;;;;;;;;;;5112934;28;20048;-77
2022/03/06 12:18:25;;;;;;;5.75;2.50;;;;;;;;;;5095287;28;20088;-76
2022/03/06 12:20:51;;;;;;;5.38;2.50;;;;;;;;;;5112771;28;20385;-77
2022/03/06 12:23:22;;;;;;;6.10;2.75;;;;;;;;;;5094945;28;20039;-76
2022/03/06 12:25:55;;;;;;;7.23;3.00;;;;;;;;;;5113024;28;20384;-76
2022/03/06 12:28:24;;;;;;;7.93;3.45;;;;;;;;;;5112859;28;20035;-76
2022/03/06 12:30:50;;;;;;;7.72;2.65;;;;;;;;;;5094990;28;20043;-75
2022/03/06 12:33:25;;;;;;;6.65;2.88;;;;;;;;;;5114098;28;20485;-76
2022/03/06 12:36:06;;;;;;;7.20;3.28;;;;;;;;;;5099001;28;20047;-75
2022/03/06 12:38:33;;;;;;;7.55;2.63;;;;;;;;;;5116883;28;20157;-76
2022/03/06 12:40:59;;;;;;;10.05;3.10;;;;;;;;;;5116712;28;20543;-76
2022/03/06 12:43:26;;;;;;;7.18;3.20;;;;;;;;;;5098526;28;20040;-76
2022/03/06 12:45:52;;;;;;;5.93;2.58;;;;;;;;;;5116611;28;20127;-76
2022/03/06 12:48:20;;;;;;;6.35;3.05;;;;;;;;;;5116908;28;20512;-76
2022/03/06 12:50:46;;;;;;;8.05;2.80;;;;;;;;;;5081297;28;20461;-76
2022/03/06 12:53:16;;;;;;;6.88;3.03;;;;;;;;;;5116674;28;20092;-76
2022/03/06 12:55:42;;;;;;;7.40;3.20;;;;;;;;;;5116276;28;20113;-77
2022/03/06 12:58:08;;;;;;;6.13;2.78;;;;;;;;;;5116104;28;20062;-75
2022/03/06 13:00:34;;;;;;;7.03;2.90;;;;;;;;;;5098177;28;20361;-76
2022/03/06 13:03:05;;;;;;;6.03;2.65;;;;;;;;;;5098422;28;20495;-76
2022/03/06 13:05:33;;;;;;;9.27;3.28;;;;;;;;;;5098466;28;20130;-76
2022/03/06 13:07:59;;;;;;;8.57;3.60;;;;;;;;;;5097957;28;20047;-77
2022/03/06 13:10:25;;;;;;;6.70;3.30;;;;;;;;;;5116160;28;20069;-76
2022/03/06 13:12:52;;;;;;;8.55;3.90;;;;;;;;;;5115982;28;20039;-77
2022/03/06 13:15:19;;;;;;;8.50;3.67;;;;;;;;;;5116211;28;20088;-74
2022/03/06 13:17:46;;;;;;;7.18;3.35;;;;;;;;;;5115893;28;20602;-76
2022/03/06 13:20:14;;;;;;;7.63;3.47;;;;;;;;;;5116206;28;20051;-77
2022/03/06 13:22:40;;;;;;;7.43;3.38;;;;;;;;;;5097626;28;20174;-76
2022/03/06 13:25:07;;;;;;;8.70;3.20;;;;;;;;;;5080967;28;20044;-76
2022/03/06 13:27:35;;;;;;;7.65;3.50;;;;;;;;;;5115847;28;20047;-75
2022/03/06 13:30:07;;;;;;;9.88;3.50;;;;;;;;;;5115775;28;20040;-76
2022/03/06 13:32:37;;;;;;;7.80;3.22;;;;;;;;;;5115845;28;20086;-76
2022/03/06 13:35:04;;;;;;;12.80;3.30;;;;;;;;;;5115460;28;20499;-74
2022/03/06 13:37:39;;;;;;;6.65;3.10;;;;;;;;;;5115460;28;20039;-76
2022/03/06 13:40:13;;;;;;;7.85;2.95;;;;;;;;;;5097308;28;20036;-76
2022/03/06 13:42:40;;;;;;;8.10;3.00;;;;;;;;;;5097595;28;20639;-78
2022/03/06 13:45:09;;;;;;;7.18;3.30;;;;;;;;;;5096984;28;20409;-76
2022/03/06 13:47:40;;;;;;;6.65;2.45;;;;;;;;;;5097434;28;20054;-76
2022/03/06 13:50:07;;;;;;;7.50;3.40;;;;;;;;;;5097163;28;20485;-76
2022/03/06 13:52:34;;;;;;;8.68;3.22;;;;;;;;;;5115229;28;20043;-76
2022/03/06 13:55:08;;;;;;;8.25;3.30;;;;;;;;;;5115474;28;20062;-77
2022/03/06 13:57:34;;;;;;;6.22;3.10;;;;;;;;;;5079744;28;20039;-75
2022/03/06 14:00:19;;;;;;;6.63;2.90;;;;;;;;;;5097176;28;20123;-75
2022/03/06 14:02:46;;;;;;;7.60;3.30;;;;;;;;;;5115205;28;20040;-76
2022/03/06 14:05:12;;;;;;;6.65;3.33;;;;;;;;;;5114838;28;20047;-76
2022/03/06 14:07:38;;;;;;;9.18;3.28;;;;;;;;;;5097016;28;20044;-76
2022/03/06 14:10:04;;;;;;;6.78;3.38;;;;;;;;;;5096959;28;20040;-75
2022/03/06 14:12:35;;;;;;;8.43;2.92;;;;;;;;;;5096700;28;20051;-76
2022/03/06 14:15:01;;;;;;;7.32;3.08;;;;;;;;;;5114759;28;20407;-75
2022/03/06 14:17:27;;;;;;;6.55;2.60;;;;;;;;;;5114516;28;20044;-74
2022/03/06 14:19:57;;;;;;;6.32;3.03;;;;;;;;;;5096831;28;20043;-75
2022/03/06 14:22:24;;;;;;;6.95;2.83;;;;;;;;;;5079866;28;20043;-76
2022/03/06 14:24:50;;;;;;;6.15;2.75;;;;;;;;;;5114879;28;20042;-76
2022/03/06 14:27:16;;;;;;;7.60;3.20;;;;;;;;;;5114560;28;20040;-76
2022/03/06 14:29:42;;;;;;;6.35;2.92;;;;;;;;;;5096582;28;20075;-76